Airfield :
LOGIN :

Register | Disclaimer

   EN    FR    IT 

 










Legend :    VFR   Marginal VFR   IFR   Intensive IFR   Very Intensive IFR
Visi :
Ceiling :
>= 8 km
>= 3000ft
5 to 8 km
1000 to 3000 ft
1500m to 5 km
500 to 1000 ft
800 to 1500m
200 to 500 ft
< 800m
< 200 ft
Symbols :   Thunderstorms  Fog  Heavy snow  Heavy precipitations  Wind > 20 kt
SIGMETs :     Misc.  Thunderstorms  Icing  Turbulence  Mountain Waves  Volcanic Ashes







- Airport Elevation : 16 ft
- IATA code : AAE


DABB - Annaba-Rabah Bitat

CURRENT METAR :
  • 251900Z 01008KT 9999 FEW023 SCT033 24/18 Q1021

EXPIRED METARs :
  • 251830Z /////KT 9999 FEW023 SCT033 24/18 Q1021
  • 251800Z 02012KT 9999 FEW023 SCT033 24/18 Q1020
  • 251730Z 02013KT 9999 FEW023 SCT033 24/18 Q1019
  • 251700Z 36014KT 9999 FEW023 SCT033 25/19 Q1019
  • 251630Z /////KT 9999 FEW023 SCT033 25/19 Q1019

TAF TAF DABB
Valid from the 25 at 18:00 until the 26 at 18:00 UTC


251700Z 2518/2618 33012KT 9999 FEW023 SCT033
TEMPO 2518/2521 FEW026TCU
BECMG 2522/2524 16008KT
PROB30
TEMPO 2600/2606 VRB02KT 2000 BR BKN010
PROB30
TEMPO 2607/2615 5000 -TSRA FEW023CB BKN030
BECMG 2607/2609 02012KT
No reported NOTAMs for that airfield.
1 SIGMET reported for the Alger FIR (DAAA) :
 
Embedded thunderstorms
DAAA SIGMET 7 VALID 251840/252240 DAMM
DAAA ALGER FIR EMBD TS OBS WI N3238 E00417 - N3142 E00911 - N3023 E00931 - N2908 E00715 - N2623 E00741 - N2506 E00201 - N3238 E00417 TOP FL380 MOV N/NE INTSF=



MET'MAP, your aeronautical weather chart ! - Copyright ORBIFLY December 2007 - Disclaimer

ORBIFLY MET'MAP TEAM :

Programming & Development : Alexandra Zaïnal
Concept & Development : Baudouin d'Aumeries
Co-Development & Prog : Marc-Olivier Méhu
Technical & hardware support : Manuel Goepfert

Contact : metmap@orbifly.com




SOURCES & CREDITS :

   NOAA